Time;durP1;ratioP1;P1;durP2;ratioP2;P2;SDS_P1;SDS_P2;PMS_P1;PMS_P2;Temp;Humidity;BMP_temperature;BMP_pressure;BME280_temperature;BME280_humidity;BME280_pressure;Samples;Min_cycle;Max_cycle;Signal;HPM_P1;HPM_P2
2021/01/09 00:00:07;;;;;;;4.55;3.95;;;15.00;55.40;;;;;;5093898;28;20016;-38
2021/01/09 00:02:33;;;;;;;6.70;3.92;;;15.00;55.40;;;;;;5076146;28;20016;-38
2021/01/09 00:04:58;;;;;;;5.20;4.20;;;15.00;55.40;;;;;;5094405;28;20074;-39
2021/01/09 00:07:24;;;;;;;5.03;4.18;;;15.00;55.40;;;;;;5093980;28;20094;-38
2021/01/09 00:09:49;;;;;;;5.40;4.13;;;14.90;55.40;;;;;;5093902;28;20032;-38
2021/01/09 00:12:15;;;;;;;4.78;3.85;;;14.90;55.40;;;;;;5093907;28;20028;-38
2021/01/09 00:14:41;;;;;;;5.78;4.43;;;14.90;55.50;;;;;;5093819;28;20051;-38
2021/01/09 00:17:07;;;;;;;4.15;3.65;;;14.90;55.50;;;;;;5094089;28;20029;-38
2021/01/09 00:19:33;;;;;;;5.43;3.97;;;14.90;55.50;;;;;;5075558;28;20016;-38
2021/01/09 00:21:59;;;;;;;4.63;3.83;;;14.80;55.50;;;;;;5093838;28;20040;-38
2021/01/09 00:24:24;;;;;;;4.25;3.83;;;14.80;55.50;;;;;;5093619;28;20531;-38
2021/01/09 00:26:50;;;;;;;4.68;3.75;;;14.80;55.50;;;;;;5093692;28;20036;-38
2021/01/09 00:29:16;;;;;;;6.50;4.40;;;14.80;55.60;;;;;;5093866;28;20031;-45
2021/01/09 00:31:41;;;;;;;6.32;4.40;;;14.80;55.50;;;;;;5075373;28;20069;-38
2021/01/09 00:34:07;;;;;;;4.18;3.38;;;14.80;55.60;;;;;;5093522;28;20024;-38
2021/01/09 00:36:33;;;;;;;5.43;4.03;;;14.80;55.60;;;;;;5093412;28;20059;-38
2021/01/09 00:38:58;;;;;;;4.63;4.13;;;14.70;55.60;;;;;;5093432;28;20526;-38
2021/01/09 00:41:27;;;;;;;4.28;3.88;;;14.70;55.60;;;;;;5093289;28;20111;-38
2021/01/09 00:43:53;;;;;;;4.93;3.75;;;14.70;55.60;;;;;;5093214;28;20062;-38
2021/01/09 00:46:19;;;;;;;5.05;4.22;;;14.70;55.60;;;;;;5093258;28;20083;-38
2021/01/09 00:48:45;;;;;;;5.28;4.10;;;14.60;55.60;;;;;;5093400;28;20027;-38
2021/01/09 00:51:14;;;;;;;7.28;4.30;;;14.60;55.60;;;;;;5093110;28;20028;-38
2021/01/09 00:53:39;;;;;;;6.97;3.70;;;14.60;55.60;;;;;;5093298;28;20102;-38
2021/01/09 00:56:06;;;;;;;3.90;3.50;;;14.60;55.70;;;;;;5093041;28;20435;-38
2021/01/09 00:58:32;;;;;;;5.10;3.85;;;14.60;55.70;;;;;;5092833;28;20111;-38
2021/01/09 01:00:58;;;;;;;5.82;3.55;;;14.60;55.70;;;;;;5092870;28;20028;-38
2021/01/09 01:03:24;;;;;;;4.95;3.55;;;14.60;55.70;;;;;;5093109;28;20576;-39
2021/01/09 01:05:50;;;;;;;5.13;3.60;;;14.60;55.80;;;;;;5091670;27;20632;-38
2021/01/09 01:08:15;;;;;;;4.05;3.60;;;14.50;55.70;;;;;;5091114;28;20119;-38
2021/01/09 01:10:41;;;;;;;5.57;4.18;;;14.50;55.70;;;;;;5092047;28;20063;-38
2021/01/09 01:13:06;;;;;;;5.47;3.92;;;14.50;55.80;;;;;;5092713;28;20055;-38
2021/01/09 01:15:32;;;;;;;5.28;3.63;;;14.50;55.80;;;;;;5092667;28;20474;-38
2021/01/09 01:17:57;;;;;;;4.38;3.90;;;14.40;55.70;;;;;;5092683;28;20129;-38
2021/01/09 01:20:23;;;;;;;6.47;4.28;;;14.40;55.80;;;;;;5092545;28;20432;-38
2021/01/09 01:22:48;;;;;;;4.10;3.35;;;14.40;55.80;;;;;;5092425;28;20028;-38
2021/01/09 01:25:15;;;;;;;3.85;3.38;;;14.40;55.80;;;;;;5092591;28;20137;-38
2021/01/09 01:27:41;;;;;;;5.18;4.05;;;14.40;55.80;;;;;;5092353;28;20557;-38
2021/01/09 01:30:07;;;;;;;4.53;3.97;;;14.40;55.80;;;;;;5092432;28;20099;-38
2021/01/09 01:32:33;;;;;;;5.07;4.00;;;14.40;55.80;;;;;;5074337;28;20043;-38
2021/01/09 01:34:59;;;;;;;4.22;3.33;;;14.30;55.80;;;;;;5092499;28;20020;-38
2021/01/09 01:37:24;;;;;;;3.65;3.35;;;14.30;55.80;;;;;;5092574;28;20055;-38
2021/01/09 01:39:50;;;;;;;4.90;3.80;;;14.30;55.90;;;;;;5092287;28;20056;-38
2021/01/09 01:42:15;;;;;;;4.10;3.22;;;14.30;55.90;;;;;;5092174;28;20043;-38
2021/01/09 01:44:41;;;;;;;4.97;3.97;;;14.30;55.90;;;;;;5091338;28;20094;-38
2021/01/09 01:47:15;;;;;;;3.45;3.15;;;14.30;55.90;;;;;;5091633;28;20362;-38
2021/01/09 01:49:40;;;;;;;3.92;3.53;;;14.20;55.90;;;;;;5092101;28;20085;-38
2021/01/09 01:52:06;;;;;;;4.20;3.13;;;14.30;55.90;;;;;;5092004;28;20111;-38
2021/01/09 01:54:32;;;;;;;4.60;3.10;;;14.20;55.90;;;;;;5091991;28;20030;-38
2021/01/09 01:57:01;;;;;;;3.53;2.90;;;14.20;55.90;;;;;;5091981;28;20031;-38
2021/01/09 01:59:27;;;;;;;4.75;3.60;;;14.20;56.00;;;;;;5091870;28;20020;-39
2021/01/09 02:02:03;;;;;;;3.78;3.30;;;14.20;56.00;;;;;;5091688;28;20510;-38
2021/01/09 02:04:29;;;;;;;4.75;4.00;;;14.20;56.00;;;;;;5092421;28;20109;-38
2021/01/09 02:06:55;;;;;;;3.53;2.90;;;14.10;55.90;;;;;;5091907;28;20063;-38
2021/01/09 02:09:24;;;;;;;5.00;3.40;;;14.10;55.90;;;;;;5091841;28;20065;-38
2021/01/09 02:11:58;;;;;;;4.20;3.30;;;14.10;56.00;;;;;;5092030;28;20019;-38
2021/01/09 02:14:38;;;;;;;3.72;2.97;;;14.10;56.00;;;;;;5091697;28;20040;-38
2021/01/09 02:17:06;;;;;;;3.60;3.05;;;14.10;56.00;;;;;;5091978;28;20115;-38
2021/01/09 02:19:36;;;;;;;4.30;3.17;;;14.10;56.00;;;;;;5091986;28;20024;-38
2021/01/09 02:22:04;;;;;;;3.70;3.05;;;14.00;56.00;;;;;;5091543;28;20045;-38
2021/01/09 02:24:29;;;;;;;3.28;2.97;;;14.00;56.00;;;;;;5091633;28;20031;-38
2021/01/09 02:26:55;;;;;;;4.68;3.30;;;14.00;56.00;;;;;;5091624;28;20111;-38
2021/01/09 02:29:23;;;;;;;3.17;2.85;;;14.00;56.00;;;;;;5091514;28;20016;-38
2021/01/09 02:32:05;;;;;;;3.42;2.80;;;14.00;56.00;;;;;;5091785;28;20428;-38
2021/01/09 02:34:41;;;;;;;3.85;3.22;;;14.00;56.10;;;;;;5091660;28;20016;-37
2021/01/09 02:37:11;;;;;;;3.60;3.20;;;14.00;56.10;;;;;;5091479;28;20043;-38
2021/01/09 02:39:37;;;;;;;4.32;2.83;;;14.00;56.10;;;;;;5091527;28;20423;-38
2021/01/09 02:42:10;;;;;;;5.47;3.42;;;13.90;56.00;;;;;;5091598;28;20421;-38
2021/01/09 02:44:37;;;;;;;4.43;3.13;;;13.90;56.10;;;;;;5091438;28;20024;-38
2021/01/09 02:47:05;;;;;;;3.40;3.03;;;13.90;56.10;;;;;;5073349;28;20063;-38
2021/01/09 02:49:30;;;;;;;3.10;2.80;;;13.90;56.10;;;;;;5091467;28;20059;-38
2021/01/09 02:51:56;;;;;;;3.28;2.90;;;13.90;56.10;;;;;;5091410;28;20060;-38
2021/01/09 02:54:21;;;;;;;3.00;2.72;;;13.90;56.10;;;;;;5091468;28;20062;-38
2021/01/09 02:56:47;;;;;;;4.90;3.45;;;13.90;56.10;;;;;;5091478;28;20078;-38
2021/01/09 02:59:13;;;;;;;4.57;3.10;;;13.80;56.10;;;;;;5092321;28;20032;-38
2021/01/09 03:01:38;;;;;;;2.75;2.55;;;13.80;56.10;;;;;;5095166;28;20036;-37
2021/01/09 03:04:04;;;;;;;3.50;3.20;;;13.90;56.20;;;;;;5095218;28;20052;-38
2021/01/09 03:06:30;;;;;;;4.00;2.63;;;13.80;56.10;;;;;;5095556;27;20140;-38
2021/01/09 03:08:55;;;;;;;4.45;2.70;;;13.80;56.20;;;;;;5095370;28;20020;-37
2021/01/09 03:11:22;;;;;;;2.92;2.63;;;13.80;56.10;;;;;;5095067;28;20218;-37
2021/01/09 03:13:48;;;;;;;2.85;2.50;;;13.80;56.10;;;;;;5094923;28;20012;-37
2021/01/09 03:16:14;;;;;;;4.80;2.83;;;13.80;56.10;;;;;;5094995;28;20473;-38
2021/01/09 03:18:40;;;;;;;3.80;2.80;;;13.80;56.10;;;;;;5095183;28;20027;-37
2021/01/09 03:21:05;;;;;;;3.05;2.60;;;13.80;56.10;;;;;;5094701;28;20044;-38
2021/01/09 03:23:31;;;;;;;2.88;2.58;;;13.80;56.10;;;;;;5095132;28;20694;-38
2021/01/09 03:25:57;;;;;;;3.00;2.70;;;13.70;56.10;;;;;;5094788;28;20028;-38
2021/01/09 03:28:23;;;;;;;3.10;2.80;;;13.70;56.10;;;;;;5095040;28;20023;-37
2021/01/09 03:30:49;;;;;;;3.40;2.60;;;13.70;56.20;;;;;;5094684;28;20047;-38
2021/01/09 03:33:15;;;;;;;3.10;2.70;;;13.70;56.10;;;;;;5094684;28;20043;-38
2021/01/09 03:35:41;;;;;;;2.80;2.30;;;13.60;56.10;;;;;;5094599;28;20093;-38
2021/01/09 03:38:07;;;;;;;3.22;2.60;;;13.70;56.10;;;;;;5094518;28;20496;-38
2021/01/09 03:40:32;;;;;;;3.30;2.72;;;13.70;56.10;;;;;;5094386;28;20028;-38
2021/01/09 03:42:58;;;;;;;2.97;2.30;;;13.60;56.10;;;;;;5094519;28;20042;-38
2021/01/09 03:45:23;;;;;;;2.75;2.28;;;13.60;56.10;;;;;;5094443;28;20028;-38
2021/01/09 03:47:49;;;;;;;3.55;2.67;;;13.60;56.10;;;;;;5094770;28;20031;-38
2021/01/09 03:50:14;;;;;;;2.80;2.42;;;13.60;56.10;;;;;;5094227;28;20024;-38
2021/01/09 03:52:40;;;;;;;2.92;2.65;;;13.60;56.10;;;;;;5094311;28;20035;-38
2021/01/09 03:55:06;;;;;;;3.08;2.38;;;13.60;56.10;;;;;;5094397;28;20058;-38
2021/01/09 03:57:32;;;;;;;3.22;2.70;;;13.60;56.10;;;;;;5094301;28;20188;-38
2021/01/09 03:59:57;;;;;;;3.47;2.55;;;13.60;56.20;;;;;;5094219;28;20032;-38
2021/01/09 04:02:23;;;;;;;3.13;2.45;;;13.60;56.20;;;;;;5094002;28;20071;-38
2021/01/09 04:04:48;;;;;;;3.38;2.55;;;13.50;56.10;;;;;;5094906;27;20026;-38
2021/01/09 04:07:14;;;;;;;2.80;2.45;;;13.50;56.10;;;;;;5094075;28;20055;-38
2021/01/09 04:09:39;;;;;;;2.95;2.65;;;13.50;56.20;;;;;;5093571;28;20035;-38
2021/01/09 04:12:06;;;;;;;2.58;2.35;;;13.50;56.10;;;;;;5093896;28;20031;-38
2021/01/09 04:14:31;;;;;;;2.65;2.00;;;13.50;56.20;;;;;;5093848;28;20024;-38
2021/01/09 04:16:57;;;;;;;3.65;2.50;;;13.50;56.20;;;;;;5093838;28;20040;-38
2021/01/09 04:19:23;;;;;;;2.70;2.45;;;13.50;56.20;;;;;;5093850;28;20028;-38
2021/01/09 04:21:53;;;;;;;2.50;2.30;;;13.50;56.20;;;;;;5093604;28;20047;-38
2021/01/09 04:24:19;;;;;;;;;;;13.50;56.20;;;;;;5094288;28;20028;-38
2021/01/09 04:26:45;;;;;;;2.20;2.00;;;13.50;56.20;;;;;;5093620;28;19904;-38
2021/01/09 04:29:10;;;;;;;3.15;2.47;;;13.40;56.20;;;;;;5093610;28;20482;-38
2021/01/09 04:31:36;;;;;;;2.70;2.50;;;13.40;56.20;;;;;;5093532;28;20166;-38
2021/01/09 04:34:02;;;;;;;2.25;2.05;;;13.40;56.20;;;;;;5093710;28;20020;-37
2021/01/09 04:36:27;;;;;;;2.97;2.50;;;13.20;56.10;;;;;;5093412;28;20440;-38
2021/01/09 04:38:53;;;;;;;2.85;2.50;;;13.40;56.80;;;;;;5093379;28;20024;-38
2021/01/09 04:41:22;;;;;;;2.53;2.17;;;13.60;56.30;;;;;;5093306;28;20110;-38
2021/01/09 04:43:48;;;;;;;2.00;1.80;;;13.40;56.30;;;;;;5093351;28;20020;-38
2021/01/09 04:46:16;;;;;;;2.63;2.00;;;13.40;56.60;;;;;;5093152;28;20027;-38
2021/01/09 04:48:43;;;;;;;2.65;2.42;;;13.50;56.50;;;;;;5093495;28;20046;-38
2021/01/09 04:51:09;;;;;;;2.47;1.90;;;13.60;56.20;;;;;;5093169;28;20066;-37
2021/01/09 04:53:37;;;;;;;3.50;2.28;;;13.70;56.20;;;;;;5093097;28;20028;-38
2021/01/09 04:56:03;;;;;;;2.13;1.92;;;13.80;56.00;;;;;;5093094;28;20020;-38
2021/01/09 04:58:31;;;;;;;2.40;2.20;;;13.80;55.80;;;;;;5092996;28;20067;-38
2021/01/09 05:00:57;;;;;;;2.17;1.92;;;13.90;55.60;;;;;;5092788;28;20036;-38
2021/01/09 05:03:22;;;;;;;2.17;1.98;;;13.90;55.60;;;;;;5092928;28;20034;-38
2021/01/09 05:05:48;;;;;;;2.08;1.80;;;13.90;55.50;;;;;;5093196;28;20075;-38
2021/01/09 05:08:14;;;;;;;2.25;2.00;;;14.00;55.50;;;;;;5093043;28;20024;-38
2021/01/09 05:10:40;;;;;;;2.75;2.45;;;14.00;55.50;;;;;;5092753;28;20035;-38
2021/01/09 05:13:05;;;;;;;2.17;1.95;;;14.00;55.50;;;;;;5092686;28;20036;-38
2021/01/09 05:15:38;;;;;;;2.42;2.00;;;14.00;55.50;;;;;;5092740;28;20070;-38
2021/01/09 05:18:07;;;;;;;2.28;1.77;;;13.90;55.50;;;;;;5092831;28;20111;-38
2021/01/09 05:20:34;;;;;;;2.20;2.00;;;13.90;55.40;;;;;;5092498;28;20193;-38
2021/01/09 05:23:01;;;;;;;2.65;1.80;;;13.90;55.50;;;;;;5091679;28;20508;-38
2021/01/09 05:25:27;;;;;;;2.08;1.88;;;13.60;55.60;;;;;;5092547;28;20135;-38
2021/01/09 05:27:58;;;;;;;2.10;1.90;;;13.70;55.80;;;;;;5092519;28;20170;-38
2021/01/09 05:30:24;;;;;;;1.90;1.80;;;13.70;55.90;;;;;;5092438;28;20027;-38
2021/01/09 05:32:51;;;;;;;1.85;1.75;;;13.60;55.90;;;;;;5092654;28;20382;-38
2021/01/09 05:35:17;;;;;;;3.05;1.98;;;13.60;56.00;;;;;;5092336;28;20024;-38
2021/01/09 05:37:50;;;;;;;3.42;1.80;;;13.60;56.70;;;;;;5092326;28;20042;-38
2021/01/09 05:40:17;;;;;;;1.77;1.67;;;13.50;56.00;;;;;;5092460;28;20028;-37
2021/01/09 05:42:43;;;;;;;2.65;1.90;;;13.50;56.10;;;;;;5092263;28;20082;-38
2021/01/09 05:45:10;;;;;;;2.22;1.90;;;13.40;56.20;;;;;;5092217;28;20019;-38
2021/01/09 05:47:37;;;;;;;2.85;2.22;;;13.50;56.40;;;;;;5092228;28;20068;-38
2021/01/09 05:50:06;;;;;;;2.38;2.00;;;13.60;56.50;;;;;;5092072;28;20236;-38
2021/01/09 05:52:40;;;;;;;2.28;2.08;;;13.60;56.10;;;;;;5092056;28;20529;-38
2021/01/09 05:55:07;;;;;;;2.15;1.75;;;13.60;56.10;;;;;;5092304;28;20373;-38
2021/01/09 05:57:34;;;;;;;2.10;1.90;;;13.70;56.10;;;;;;5091905;28;20038;-38
2021/01/09 06:00:12;;;;;;;2.25;1.85;;;13.50;55.80;;;;;;5091986;28;20016;-38
2021/01/09 06:02:59;;;;;;;1.70;1.60;;;13.70;55.80;;;;;;5091779;28;20039;-38
2021/01/09 06:05:38;;;;;;;2.88;2.25;;;13.70;55.70;;;;;;5092451;28;20036;-40
2021/01/09 06:08:07;;;;;;;2.15;1.73;;;13.80;56.30;;;;;;5092346;28;20020;-39
2021/01/09 06:10:36;;;;;;;2.58;1.67;;;13.90;55.40;;;;;;5091829;28;20039;-38
2021/01/09 06:13:02;;;;;;;2.10;1.90;;;14.10;55.40;;;;;;5091920;28;20055;-38
2021/01/09 06:15:31;;;;;;;2.20;2.00;;;14.00;55.40;;;;;;5091746;28;20028;-38
2021/01/09 06:18:01;;;;;;;1.77;1.67;;;14.10;55.40;;;;;;5091760;28;20028;-38
2021/01/09 06:20:26;;;;;;;2.03;1.67;;;14.10;55.20;;;;;;5091693;28;20028;-38
2021/01/09 06:22:57;;;;;;;2.15;1.90;;;14.10;55.10;;;;;;5091895;28;20086;-38
2021/01/09 06:25:23;;;;;;;1.85;1.63;;;14.20;55.10;;;;;;5091622;28;20101;-38
2021/01/09 06:27:52;;;;;;;2.05;1.85;;;14.30;55.00;;;;;;5091694;28;20511;-38
2021/01/09 06:30:19;;;;;;;1.52;1.40;;;14.30;54.90;;;;;;5091830;28;20573;-38
2021/01/09 06:32:55;;;;;;;1.98;1.52;;;14.40;54.90;;;;;;5092086;28;20105;-38
2021/01/09 06:35:20;;;;;;;1.60;1.50;;;14.40;54.90;;;;;;5096029;28;20059;-38
2021/01/09 06:37:46;;;;;;;1.67;1.23;;;14.40;54.80;;;;;;5095578;28;20477;-38
2021/01/09 06:40:13;;;;;;;1.70;1.50;;;14.50;54.80;;;;;;5095595;28;20102;-38
2021/01/09 06:42:39;;;;;;;1.80;1.70;;;14.50;54.70;;;;;;5095466;28;20032;-38
2021/01/09 06:45:05;;;;;;;2.03;1.85;;;14.50;54.60;;;;;;5095649;28;20035;-38
2021/01/09 06:47:31;;;;;;;1.92;1.75;;;14.60;54.60;;;;;;5095524;28;20035;-38
2021/01/09 06:50:18;;;;;;;1.90;1.70;;;14.60;54.50;;;;;;5095422;28;20103;-38
2021/01/09 06:52:53;;;;;;;2.10;1.58;;;14.60;54.30;;;;;;5095718;28;20373;-38
2021/01/09 06:55:37;;;;;;;1.52;1.42;;;14.70;54.40;;;;;;5095391;28;20027;-38
2021/01/09 06:58:03;;;;;;;2.55;1.50;;;14.70;54.30;;;;;;5095268;28;20480;-38
2021/01/09 07:00:29;;;;;;;2.45;1.98;;;14.70;54.30;;;;;;5095296;28;20024;-38
2021/01/09 07:03:13;;;;;;;2.10;1.48;;;14.80;54.40;;;;;;5077085;28;20028;-38
2021/01/09 07:05:46;;;;;;;2.13;1.55;;;14.70;54.40;;;;;;5095705;27;20078;-38
2021/01/09 07:08:30;;;;;;;1.42;1.33;;;14.70;54.40;;;;;;5095511;28;20035;-38
2021/01/09 07:10:58;;;;;;;1.85;1.70;;;14.60;54.40;;;;;;5095329;28;20378;-37
2021/01/09 07:13:25;;;;;;;1.88;1.77;;;14.60;54.50;;;;;;5095294;28;20036;-38
2021/01/09 07:16:11;;;;;;;2.17;1.80;;;14.60;54.60;;;;;;5095194;28;20107;-38
2021/01/09 07:18:43;;;;;;;1.83;1.42;;;14.50;54.60;;;;;;5094981;28;20111;-38
2021/01/09 07:21:11;;;;;;;2.20;1.77;;;14.50;54.70;;;;;;5094878;28;20028;-38
2021/01/09 07:23:38;;;;;;;1.30;1.20;;;14.50;54.80;;;;;;5094838;28;20028;-38
2021/01/09 07:26:07;;;;;;;1.40;1.30;;;14.20;54.70;;;;;;5095033;28;20028;-38
2021/01/09 07:28:34;;;;;;;1.73;1.30;;;14.50;54.90;;;;;;5094847;28;20032;-40
2021/01/09 07:31:16;;;;;;;1.95;1.60;;;14.50;54.90;;;;;;5094877;28;20092;-39
2021/01/09 07:33:44;;;;;;;1.70;1.40;;;14.50;54.90;;;;;;5094793;28;20577;-38
2021/01/09 07:36:13;;;;;;;1.67;1.58;;;14.50;54.90;;;;;;5094780;28;20093;-39
2021/01/09 07:38:46;;;;;;;2.25;1.83;;;14.40;54.90;;;;;;5094784;28;20016;-38
2021/01/09 07:41:31;;;;;;;1.83;1.65;;;14.40;55.10;;;;;;5094288;28;20043;-38
2021/01/09 07:44:11;;;;;;;1.50;1.40;;;14.30;55.20;;;;;;5094557;28;20509;-38
2021/01/09 07:46:37;;;;;;;1.65;1.52;;;14.30;55.20;;;;;;5094135;28;20095;-38
2021/01/09 07:49:04;;;;;;;1.30;1.20;;;14.30;55.00;;;;;;5094383;28;20110;-38
2021/01/09 07:51:51;;;;;;;1.77;1.40;;;14.40;55.20;;;;;;5094320;28;20028;-38
2021/01/09 07:54:39;;;;;;;1.63;1.38;;;14.40;55.20;;;;;;5094286;28;20028;-38
2021/01/09 07:57:17;;;;;;;1.92;1.55;;;14.40;55.00;;;;;;5094218;28;20504;-38
2021/01/09 07:59:43;;;;;;;1.77;1.52;;;14.50;55.00;;;;;;5094285;28;20110;-38
2021/01/09 08:02:09;;;;;;;1.30;1.20;;;14.40;55.00;;;;;;5094094;28;20102;-39
2021/01/09 08:04:34;;;;;;;2.53;1.38;;;14.40;55.10;;;;;;5094080;28;20034;-38
2021/01/09 08:07:00;;;;;;;1.20;1.10;;;14.40;55.00;;;;;;5094637;27;20051;-37
2021/01/09 08:09:28;;;;;;;1.75;1.58;;;14.40;55.00;;;;;;5093990;28;20028;-38
2021/01/09 08:11:54;;;;;;;2.63;1.42;;;14.20;54.90;;;;;;5094183;28;20386;-38
2021/01/09 08:14:20;;;;;;;1.48;1.25;;;14.40;54.80;;;;;;5094072;28;20016;-37
2021/01/09 08:16:46;;;;;;;1.30;1.20;;;14.50;55.00;;;;;;5093928;28;20414;-40
2021/01/09 08:19:19;;;;;;;1.67;1.58;;;14.40;54.90;;;;;;5075810;28;20108;-40
2021/01/09 08:21:52;;;;;;;1.40;1.30;;;14.50;54.60;;;;;;5093679;28;20039;-40
2021/01/09 08:24:25;;;;;;;1.63;1.05;;;14.50;54.80;;;;;;5093767;28;20032;-39
2021/01/09 08:26:55;;;;;;;1.48;1.23;;;14.50;54.80;;;;;;5094122;28;20020;-39
2021/01/09 08:29:21;;;;;;;1.73;1.30;;;14.50;54.70;;;;;;5093873;28;20415;-40
2021/01/09 08:31:50;;;;;;;2.00;1.48;;;14.50;54.60;;;;;;5093668;28;20024;-40
2021/01/09 08:34:20;;;;;;;1.40;1.10;;;14.60;54.60;;;;;;5093313;28;20028;-37
2021/01/09 08:36:48;;;;;;;1.42;1.13;;;14.60;54.50;;;;;;5093592;28;20035;-41
2021/01/09 08:39:14;;;;;;;3.47;1.52;;;14.70;54.40;;;;;;5093398;28;20374;-40
2021/01/09 08:41:41;;;;;;;1.77;1.20;;;14.70;54.40;;;;;;5093321;28;20032;-40
2021/01/09 08:44:10;;;;;;;1.92;1.30;;;14.70;54.20;;;;;;5093377;28;20024;-40
2021/01/09 08:46:41;;;;;;;1.90;1.08;;;14.70;54.20;;;;;;5093273;28;20560;-40
2021/01/09 08:49:21;;;;;;;1.55;1.15;;;14.80;54.20;;;;;;5093491;28;20016;-40
2021/01/09 08:52:11;;;;;;;1.33;1.20;;;14.80;54.10;;;;;;5093213;28;20046;-40
2021/01/09 08:54:39;;;;;;;1.67;1.15;;;14.80;54.20;;;;;;5092641;28;20036;-41
2021/01/09 08:57:06;;;;;;;1.10;0.93;;;14.80;54.30;;;;;;5092957;28;20474;-40
2021/01/09 08:59:33;;;;;;;1.27;1.17;;;14.80;54.20;;;;;;5093007;28;20466;-40
2021/01/09 09:02:01;;;;;;;1.98;1.30;;;14.80;54.20;;;;;;5092829;28;20127;-40
2021/01/09 09:04:28;;;;;;;3.67;1.05;;;14.80;54.30;;;;;;5092995;28;20016;-40
2021/01/09 09:07:04;;;;;;;1.20;1.10;;;14.80;54.30;;;;;;5093094;27;20094;-40
2021/01/09 09:09:32;;;;;;;1.42;1.15;;;14.80;54.20;;;;;;5092764;28;20473;-38
2021/01/09 09:11:57;;;;;;;1.00;1.00;;;14.90;54.20;;;;;;5092794;28;20044;-37
2021/01/09 09:14:25;;;;;;;1.20;0.90;;;14.80;54.20;;;;;;5092741;28;20524;-38
2021/01/09 09:17:02;;;;;;;2.88;1.00;;;14.90;54.40;;;;;;5092636;28;20028;-40
2021/01/09 09:19:33;;;;;;;1.40;1.30;;;14.90;54.50;;;;;;5092703;28;20031;-38
2021/01/09 09:21:59;;;;;;;4.82;1.08;;;14.90;54.50;;;;;;5092456;28;20108;-39
2021/01/09 09:24:39;;;;;;;2.28;1.33;;;14.90;54.50;;;;;;5092720;28;20039;-38
2021/01/09 09:27:28;;;;;;;1.00;0.98;;;14.90;54.40;;;;;;5074832;28;20033;-39
2021/01/09 09:30:08;;;;;;;1.58;0.95;;;14.90;54.40;;;;;;5092004;28;20023;-39
2021/01/09 09:32:34;;;;;;;3.30;1.52;;;15.00;54.50;;;;;;5091577;28;20317;-39
2021/01/09 09:35:18;;;;;;;2.40;1.10;;;15.00;54.30;;;;;;5092084;28;20024;-39
2021/01/09 09:37:43;;;;;;;1.60;1.00;;;15.00;54.20;;;;;;5092171;28;20042;-40
2021/01/09 09:40:20;;;;;;;1.80;0.88;;;15.00;54.20;;;;;;5092298;28;20106;-40
2021/01/09 09:42:46;;;;;;;0.98;0.80;;;15.10;54.20;;;;;;5092316;28;20127;-40
2021/01/09 09:45:11;;;;;;;1.17;1.00;;;15.10;54.10;;;;;;5092300;28;20098;-40
2021/01/09 09:47:37;;;;;;;1.08;0.98;;;15.10;54.00;;;;;;5092226;28;20059;-41
2021/01/09 09:50:03;;;;;;;3.22;1.25;;;15.00;53.90;;;;;;5092124;28;20103;-40
2021/01/09 09:52:28;;;;;;;2.00;1.08;;;15.10;53.90;;;;;;5092093;28;20482;-40
2021/01/09 09:55:05;;;;;;;1.20;0.90;;;15.10;54.00;;;;;;5092020;28;20103;-40
2021/01/09 09:57:31;;;;;;;1.40;1.05;;;15.20;54.00;;;;;;5092285;28;20027;-40
2021/01/09 10:00:06;;;;;;;0.80;0.77;;;15.10;53.80;;;;;;5073180;28;20020;-40
2021/01/09 10:02:31;;;;;;;1.10;0.90;;;15.20;53.90;;;;;;5091440;28;20043;-40
2021/01/09 10:04:57;;;;;;;1.52;1.00;;;15.20;53.90;;;;;;5090505;28;20031;-40
2021/01/09 10:07:23;;;;;;;1.33;1.02;;;15.20;53.80;;;;;;5091990;28;20456;-39
2021/01/09 10:09:49;;;;;;;1.85;1.20;;;15.40;53.90;;;;;;5091814;28;20017;-39
2021/01/09 10:12:15;;;;;;;1.98;1.17;;;15.50;53.80;;;;;;5091800;28;20082;-38
2021/01/09 10:14:41;;;;;;;2.40;1.17;;;15.50;53.90;;;;;;5092011;28;20020;-38
2021/01/09 10:17:16;;;;;;;1.73;1.25;;;15.60;53.80;;;;;;5091698;28;20024;-39
2021/01/09 10:19:42;;;;;;;1.75;1.20;;;15.60;53.60;;;;;;5090330;28;20028;-38
2021/01/09 10:22:08;;;;;;;4.32;1.00;;;15.70;53.60;;;;;;5089687;28;20870;-38
2021/01/09 10:24:34;;;;;;;3.40;1.15;;;15.70;53.40;;;;;;5090235;28;20055;-38
2021/01/09 10:27:03;;;;;;;2.00;1.08;;;15.80;53.40;;;;;;5073438;28;20111;-38
2021/01/09 10:29:29;;;;;;;4.07;1.35;;;15.80;53.30;;;;;;5073466;28;20037;-38
2021/01/09 10:31:54;;;;;;;1.40;1.08;;;15.90;53.20;;;;;;5091571;28;20111;-39
2021/01/09 10:34:20;;;;;;;2.00;1.05;;;15.90;53.10;;;;;;5091442;28;20029;-39
2021/01/09 10:36:45;;;;;;;2.28;1.25;;;16.00;53.50;;;;;;5091497;28;20055;-39
2021/01/09 10:39:11;;;;;;;2.45;1.27;;;16.00;53.10;;;;;;5091560;28;20379;-40
2021/01/09 10:41:37;;;;;;;2.90;1.40;;;16.10;52.90;;;;;;5091492;28;20493;-39
2021/01/09 10:44:04;;;;;;;2.85;1.45;;;16.10;52.90;;;;;;5091635;28;20035;-39
2021/01/09 10:46:29;;;;;;;3.67;1.30;;;16.10;52.80;;;;;;5091794;28;20040;-39
2021/01/09 10:48:56;;;;;;;1.08;0.93;;;16.20;52.80;;;;;;5091886;28;20584;-39
2021/01/09 10:51:23;;;;;;;3.72;1.40;;;16.20;52.60;;;;;;5091513;28;20020;-39
2021/01/09 10:53:49;;;;;;;2.30;1.42;;;16.20;52.60;;;;;;5073234;28;20114;-39
2021/01/09 10:56:15;;;;;;;3.65;1.10;;;16.20;52.60;;;;;;5091433;28;20103;-40
2021/01/09 10:58:41;;;;;;;1.25;1.10;;;16.30;53.20;;;;;;5091333;28;20028;-38
2021/01/09 11:01:07;;;;;;;2.63;1.40;;;16.30;52.40;;;;;;5091397;28;20036;-39
2021/01/09 11:03:33;;;;;;;1.35;1.05;;;16.30;53.00;;;;;;5091239;28;20497;-39
2021/01/09 11:05:59;;;;;;;2.20;1.00;;;16.30;52.30;;;;;;5091725;28;20474;-39
2021/01/09 11:08:26;;;;;;;2.03;1.42;;;16.30;52.30;;;;;;5091547;28;20020;-39
2021/01/09 11:10:53;;;;;;;2.38;1.02;;;16.30;52.30;;;;;;5090972;28;20020;-39
2021/01/09 11:13:19;;;;;;;4.35;1.27;;;16.30;52.20;;;;;;5091084;28;20044;-39
2021/01/09 11:15:48;;;;;;;1.90;1.23;;;16.30;52.30;;;;;;5091421;28;20013;-39
2021/01/09 11:18:15;;;;;;;2.65;1.45;;;16.30;52.40;;;;;;5091208;28;20038;-39
2021/01/09 11:20:46;;;;;;;2.00;1.00;;;16.40;52.30;;;;;;5092799;28;20474;-39
2021/01/09 11:23:12;;;;;;;2.50;1.48;;;16.30;52.30;;;;;;5095160;28;20020;-39
2021/01/09 11:25:42;;;;;;;2.55;1.10;;;16.30;52.50;;;;;;5094950;28;20166;-39
2021/01/09 11:28:07;;;;;;;2.45;1.27;;;16.30;52.40;;;;;;5094804;28;20020;-39
2021/01/09 11:30:33;;;;;;;1.77;1.00;;;16.40;52.50;;;;;;5094760;28;20085;-39
2021/01/09 11:32:58;;;;;;;4.57;1.10;;;16.40;52.60;;;;;;5094730;28;20030;-39
2021/01/09 11:35:24;;;;;;;2.25;1.17;;;16.50;53.00;;;;;;5094488;28;20109;-39
2021/01/09 11:37:50;;;;;;;6.07;1.50;;;16.40;53.50;;;;;;5093358;28;20039;-39
2021/01/09 11:40:15;;;;;;;7.03;1.45;;;16.40;55.50;;;;;;5094426;28;20031;-39
2021/01/09 11:42:42;;;;;;;5.30;1.05;;;16.40;56.20;;;;;;5094321;28;20036;-39
2021/01/09 11:45:08;;;;;;;4.20;1.35;;;16.40;56.90;;;;;;5094724;28;20327;-40
2021/01/09 11:47:34;;;;;;;6.15;1.45;;;16.40;59.00;;;;;;5094353;28;20444;-39
2021/01/09 11:50:00;;;;;;;3.63;1.40;;;16.40;59.10;;;;;;5094388;28;20048;-39
2021/01/09 11:52:25;;;;;;;2.55;1.00;;;16.50;60.70;;;;;;5094150;28;20028;-36
2021/01/09 11:54:51;;;;;;;2.35;1.25;;;16.30;60.90;;;;;;5094163;28;20051;-39
2021/01/09 11:57:16;;;;;;;6.00;1.30;;;16.30;62.30;;;;;;5094131;28;20099;-39
2021/01/09 11:59:42;;;;;;;6.00;1.35;;;16.30;62.60;;;;;;5094131;28;20034;-39
2021/01/09 12:02:07;;;;;;;2.30;1.20;;;16.20;62.00;;;;;;5094064;28;20036;-39
2021/01/09 12:04:33;;;;;;;2.97;1.30;;;16.20;63.10;;;;;;5094231;28;20107;-40
2021/01/09 12:06:58;;;;;;;2.60;1.27;;;16.20;63.30;;;;;;5094578;27;20125;-40
2021/01/09 12:09:24;;;;;;;7.18;1.67;;;16.10;63.60;;;;;;5093946;28;20466;-39
2021/01/09 12:11:54;;;;;;;2.95;1.13;;;16.10;63.70;;;;;;5093989;28;20074;-39
2021/01/09 12:14:20;;;;;;;1.38;1.02;;;16.10;65.30;;;;;;5094174;28;20522;-39
2021/01/09 12:16:45;;;;;;;4.43;1.30;;;16.00;65.00;;;;;;5093986;28;20072;-40
2021/01/09 12:19:11;;;;;;;2.58;1.40;;;16.00;64.90;;;;;;5093799;28;20501;-39
2021/01/09 12:21:36;;;;;;;2.72;1.48;;;16.00;64.60;;;;;;5093653;28;20040;-39
2021/01/09 12:24:03;;;;;;;3.67;1.20;;;16.00;66.30;;;;;;5093667;28;20300;-39
2021/01/09 12:26:28;;;;;;;2.22;1.55;;;15.90;67.30;;;;;;5093622;28;20028;-39
2021/01/09 12:28:54;;;;;;;3.03;1.40;;;15.90;67.30;;;;;;5093598;28;20023;-39
2021/01/09 12:31:34;;;;;;;2.42;1.00;;;15.90;67.70;;;;;;5074919;28;20020;-39
2021/01/09 12:34:03;;;;;;;2.00;1.10;;;15.90;68.20;;;;;;5093566;28;20032;-38
2021/01/09 12:36:29;;;;;;;1.80;1.05;;;15.90;68.50;;;;;;5093548;28;20016;-39
2021/01/09 12:38:55;;;;;;;2.80;1.40;;;15.90;67.30;;;;;;5093499;28;20111;-38
2021/01/09 12:41:30;;;;;;;1.83;1.10;;;15.90;67.00;;;;;;5093309;28;20111;-39
2021/01/09 12:44:04;;;;;;;3.30;0.82;;;15.90;65.60;;;;;;5093384;28;20029;-36
2021/01/09 12:46:42;;;;;;;4.47;1.52;;;16.00;63.40;;;;;;5093276;28;20535;-37
2021/01/09 12:49:18;;;;;;;2.63;0.80;;;16.10;62.50;;;;;;5093256;28;20135;-36
2021/01/09 12:51:48;;;;;;;23.55;0.95;;;16.10;63.20;;;;;;5093277;28;20099;-37